createdAt,value
2023-01-17T00:01:34.246Z,98431.28
2023-01-17T00:04:20.473Z,98421.09
2023-01-17T00:07:06.836Z,98402.00
2023-01-17T00:09:53.156Z,98402.94
2023-01-17T00:12:22.239Z,98399.13
2023-01-17T00:14:53.724Z,98354.25
2023-01-17T00:17:23.629Z,98378.19
2023-01-17T00:20:10.193Z,98373.69
2023-01-17T00:22:57.122Z,98361.59
2023-01-17T00:25:43.448Z,98362.03
2023-01-17T00:28:11.558Z,98326.66
2023-01-17T00:30:39.216Z,98318.59
2023-01-17T00:33:07.054Z,98299.88
2023-01-17T00:35:35.459Z,98343.84
2023-01-17T00:38:05.375Z,98334.91
2023-01-17T00:40:35.057Z,98297.34
2023-01-17T00:43:22.393Z,98308.91
2023-01-17T00:46:09.820Z,98302.16
2023-01-17T00:48:57.100Z,98278.00
2023-01-17T00:51:44.349Z,98247.09
2023-01-17T00:54:31.397Z,98301.38
2023-01-17T00:57:19.494Z,98226.88
2023-01-17T01:00:05.750Z,98275.91
2023-01-17T01:02:53.436Z,98268.38
2023-01-17T01:05:41.129Z,98256.47
2023-01-17T01:08:36.809Z,98253.22
2023-01-17T01:11:35.643Z,98239.41
2023-01-17T01:14:23.190Z,98245.88
2023-01-17T01:17:09.854Z,98240.75
2023-01-17T01:19:56.384Z,98235.66
2023-01-17T01:22:42.442Z,98190.50
2023-01-17T01:25:28.830Z,98166.28
2023-01-17T01:28:30.455Z,98200.13
2023-01-17T01:31:21.229Z,98182.03
2023-01-17T01:33:51.017Z,98174.16
2023-01-17T01:36:18.805Z,98184.66
2023-01-17T01:38:46.763Z,98201.09
2023-01-17T01:41:14.564Z,98187.06
2023-01-17T01:43:53.905Z,98209.56
2023-01-17T01:46:27.047Z,98202.91
2023-01-17T01:48:59.301Z,98196.34
2023-01-17T01:51:33.551Z,98183.69
2023-01-17T01:54:11.888Z,98172.47
2023-01-17T01:56:41.527Z,98192.66
2023-01-17T01:59:11.719Z,98187.53
2023-01-17T02:01:39.653Z,98172.53
2023-01-17T02:04:12.208Z,98153.50
2023-01-17T02:06:55.724Z,98181.56
2023-01-17T02:09:24.603Z,98144.78
2023-01-17T02:11:53.603Z,98177.41
2023-01-17T02:14:22.847Z,98162.22
2023-01-17T02:17:14.917Z,98154.66
2023-01-17T02:19:58.018Z,98161.31
2023-01-17T02:23:07.931Z,98151.25
2023-01-17T02:26:05.568Z,98129.44
2023-01-17T02:28:51.735Z,98138.16
2023-01-17T02:31:31.763Z,98119.63
2023-01-17T02:34:08.987Z,98114.63
2023-01-17T02:36:50.189Z,98076.06
2023-01-17T02:39:22.622Z,98101.97
2023-01-17T02:41:55.843Z,98102.75
2023-01-17T02:44:24.213Z,98081.63
2023-01-17T02:46:54.883Z,98096.66
2023-01-17T02:49:28.748Z,98087.28
2023-01-17T02:52:23.605Z,98102.91
2023-01-17T02:55:02.321Z,98093.97
2023-01-17T02:57:51.794Z,98097.47
2023-01-17T03:00:27.877Z,98095.09
2023-01-17T03:03:06.973Z,98052.56
2023-01-17T03:05:46.132Z,98087.88
2023-01-17T03:08:15.660Z,98063.31
2023-01-17T03:10:45.997Z,98076.31
2023-01-17T03:13:14.056Z,98079.47
2023-01-17T03:15:41.995Z,98053.69
2023-01-17T03:18:16.053Z,98062.41
2023-01-17T03:20:43.918Z,98067.25
2023-01-17T03:23:11.698Z,98067.72
2023-01-17T03:25:39.523Z,98054.38
2023-01-17T03:28:07.645Z,98035.69
2023-01-17T03:30:35.428Z,98059.03
2023-01-17T03:33:03.503Z,98040.81
2023-01-17T03:35:31.283Z,98024.97
2023-01-17T03:37:59.108Z,98027.44
2023-01-17T03:40:27.094Z,98059.09
2023-01-17T03:42:54.842Z,98068.13
2023-01-17T03:45:22.528Z,98038.22
2023-01-17T03:47:50.428Z,98019.66
2023-01-17T03:50:18.376Z,98014.78
2023-01-17T03:52:46.050Z,98051.19
2023-01-17T03:55:13.741Z,98035.13
2023-01-17T03:57:41.600Z,98028.81
2023-01-17T04:00:11.172Z,98059.75
2023-01-17T04:02:38.917Z,98005.28
2023-01-17T04:05:06.795Z,98047.78
2023-01-17T04:07:34.476Z,98033.75
2023-01-17T04:10:02.120Z,98010.25
2023-01-17T04:12:29.850Z,98018.72
2023-01-17T04:14:57.504Z,98022.19
2023-01-17T04:17:25.403Z,97979.59
2023-01-17T04:19:53.619Z,98000.88
2023-01-17T04:22:21.498Z,97986.06
2023-01-17T04:24:49.322Z,98045.69
2023-01-17T04:27:17.233Z,98023.44
2023-01-17T04:29:46.744Z,98031.00
2023-01-17T04:32:14.986Z,98033.72
2023-01-17T04:34:42.870Z,97972.13
2023-01-17T04:37:10.639Z,98002.06
2023-01-17T04:39:38.523Z,98018.22
2023-01-17T04:42:06.350Z,97970.34
2023-01-17T04:44:34.884Z,98021.25
2023-01-17T04:47:03.228Z,98006.81
2023-01-17T04:49:31.235Z,97961.75
2023-01-17T04:51:59.806Z,98017.75
2023-01-17T04:54:27.753Z,98004.78
2023-01-17T04:56:55.655Z,98010.88
2023-01-17T04:59:23.406Z,97974.25
2023-01-17T05:01:51.190Z,98007.00
2023-01-17T05:04:19.072Z,97988.50
2023-01-17T05:06:46.971Z,97979.53
2023-01-17T05:09:14.904Z,97983.72
2023-01-17T05:11:42.902Z,97939.88
2023-01-17T05:14:11.048Z,97983.00
2023-01-17T05:16:38.880Z,97963.16
2023-01-17T05:19:06.707Z,97971.06
2023-01-17T05:21:34.845Z,97985.72
2023-01-17T05:24:05.780Z,97968.59
2023-01-17T05:26:33.840Z,97953.66
2023-01-17T05:29:01.555Z,97953.66
2023-01-17T05:31:29.349Z,97975.88
2023-01-17T05:33:57.135Z,97984.38
2023-01-17T05:36:24.941Z,97960.44
2023-01-17T05:38:52.671Z,97969.50
2023-01-17T05:41:23.160Z,97980.88
2023-01-17T05:43:50.899Z,97959.88
2023-01-17T05:46:18.729Z,97940.66
2023-01-17T05:48:46.799Z,97991.84
2023-01-17T05:51:14.420Z,98000.00
2023-01-17T05:53:42.150Z,97966.88
2023-01-17T05:56:09.924Z,97951.22
2023-01-17T05:58:37.962Z,98006.31
2023-01-17T06:01:06.024Z,97994.56
2023-01-17T06:03:33.973Z,97971.75
2023-01-17T06:06:01.802Z,97992.28
2023-01-17T06:08:29.615Z,98009.13
2023-01-17T06:11:01.933Z,97985.06
2023-01-17T06:13:32.683Z,97999.44
2023-01-17T06:16:04.332Z,97990.31
2023-01-17T06:18:32.477Z,98009.28
2023-01-17T06:21:00.229Z,97937.22
2023-01-17T06:23:28.565Z,98003.19
2023-01-17T06:25:56.897Z,98014.59
2023-01-17T06:28:24.754Z,98009.88
2023-01-17T06:30:52.834Z,98031.19
2023-01-17T06:33:20.607Z,98024.88
2023-01-17T06:35:53.132Z,98048.81
2023-01-17T06:38:22.271Z,98015.56
2023-01-17T06:40:50.155Z,97993.44
2023-01-17T06:43:17.994Z,98001.16
2023-01-17T06:45:45.760Z,98029.00
2023-01-17T06:48:13.837Z,98006.75
2023-01-17T06:50:41.922Z,98028.88
2023-01-17T06:53:10.286Z,97988.22
2023-01-17T06:55:40.406Z,98034.88
2023-01-17T06:58:09.368Z,98016.28
2023-01-17T07:00:40.387Z,97997.59
2023-01-17T07:03:20.671Z,98043.16
2023-01-17T07:05:49.328Z,98048.34
2023-01-17T07:08:18.673Z,98038.59
2023-01-17T07:10:47.970Z,98013.13
2023-01-17T07:13:16.901Z,98011.88
2023-01-17T07:15:44.874Z,98058.69
2023-01-17T07:18:13.740Z,97989.88
2023-01-17T07:20:44.106Z,98041.72
2023-01-17T07:23:11.955Z,98041.03
2023-01-17T07:25:39.875Z,98046.38
2023-01-17T07:28:08.451Z,98046.38
2023-01-17T07:30:37.005Z,98028.97
2023-01-17T07:33:05.707Z,98046.03
2023-01-17T07:35:33.744Z,97980.41
2023-01-17T07:38:03.319Z,98035.75
2023-01-17T07:40:33.541Z,98026.03
2023-01-17T07:43:15.666Z,98022.59
2023-01-17T07:45:45.896Z,98012.94
2023-01-17T07:48:14.111Z,97997.00
2023-01-17T07:50:42.057Z,98031.00
2023-01-17T07:53:11.146Z,97990.25
2023-01-17T07:55:38.969Z,97973.97
2023-01-17T07:58:06.682Z,98010.16
2023-01-17T08:00:35.670Z,98057.47
2023-01-17T08:03:03.751Z,98065.97
2023-01-17T08:05:32.051Z,98030.06
2023-01-17T08:07:59.971Z,98085.69
2023-01-17T08:10:27.640Z,98104.22
2023-01-17T08:12:58.459Z,98139.31
2023-01-17T08:15:27.011Z,98104.03
2023-01-17T08:17:55.108Z,98137.63
2023-01-17T08:20:24.230Z,98097.34
2023-01-17T08:22:55.952Z,98159.78
2023-01-17T08:25:25.105Z,98145.41
2023-01-17T08:27:57.579Z,98139.84
2023-01-17T08:30:26.163Z,98131.03
2023-01-17T08:32:54.630Z,98143.25
2023-01-17T08:35:22.959Z,98144.03
2023-01-17T08:37:55.288Z,98149.81
2023-01-17T08:40:23.950Z,98134.31
2023-01-17T08:42:56.737Z,98105.59
2023-01-17T08:45:25.257Z,98111.56
2023-01-17T08:47:53.792Z,98141.19
2023-01-17T08:50:21.607Z,98110.56
2023-01-17T08:52:50.175Z,98076.75
2023-01-17T08:55:18.043Z,98077.53
2023-01-17T08:57:45.780Z,98074.47
2023-01-17T09:00:14.914Z,98088.25
2023-01-17T09:02:42.656Z,98096.84
2023-01-17T09:05:11.540Z,98090.31
2023-01-17T09:07:39.350Z,98092.31
2023-01-17T09:10:07.424Z,98113.09
2023-01-17T09:12:37.050Z,98102.25
2023-01-17T09:15:06.805Z,98113.13
2023-01-17T09:17:34.612Z,98081.16
2023-01-17T09:20:02.852Z,98119.47
2023-01-17T09:22:30.613Z,98091.66
2023-01-17T09:24:58.755Z,98138.25
2023-01-17T09:27:26.576Z,98107.47
2023-01-17T09:29:54.239Z,98142.53
2023-01-17T09:32:22.181Z,98131.78
2023-01-17T09:34:50.352Z,98117.44
2023-01-17T09:37:18.059Z,98066.44
2023-01-17T09:39:46.047Z,98152.59
2023-01-17T09:42:17.043Z,98153.75
2023-01-17T09:44:52.532Z,98155.22
2023-01-17T09:47:31.476Z,98105.19
2023-01-17T09:50:15.483Z,98155.88
2023-01-17T09:52:44.368Z,98132.59
2023-01-17T09:55:17.544Z,98106.00
2023-01-17T09:58:03.033Z,98109.66
2023-01-17T10:00:49.759Z,98139.47
2023-01-17T10:03:29.639Z,98145.63
2023-01-17T10:06:10.453Z,98134.78
2023-01-17T10:08:59.925Z,98144.16
2023-01-17T10:12:04.557Z,98155.91
2023-01-17T10:14:57.237Z,98168.69
2023-01-17T10:17:52.322Z,98134.88
2023-01-17T10:20:26.201Z,98166.53
2023-01-17T10:23:04.195Z,98168.91
2023-01-17T10:25:52.559Z,98173.19
2023-01-17T10:28:33.528Z,98164.50
2023-01-17T10:31:22.988Z,98134.97
2023-01-17T10:33:56.444Z,98175.19
2023-01-17T10:36:30.890Z,98166.13
2023-01-17T10:39:12.045Z,98156.75
2023-01-17T10:41:45.280Z,98152.13
2023-01-17T10:44:25.869Z,98133.28
2023-01-17T10:47:11.289Z,98118.53
2023-01-17T10:49:45.537Z,98108.28
2023-01-17T10:52:43.537Z,98117.44
2023-01-17T10:55:33.417Z,98115.44
2023-01-17T10:58:01.713Z,98104.91
2023-01-17T11:00:44.052Z,98121.09
2023-01-17T11:03:13.922Z,98068.59
2023-01-17T11:05:43.273Z,98098.56
2023-01-17T11:08:13.694Z,98041.06
2023-01-17T11:10:54.155Z,98048.28
2023-01-17T11:13:34.425Z,98031.25
2023-01-17T11:16:10.170Z,98064.16
2023-01-17T11:18:41.255Z,98028.69
2023-01-17T11:21:18.777Z,98036.25
2023-01-17T11:23:52.186Z,98024.16
2023-01-17T11:26:29.613Z,98059.47
2023-01-17T11:29:23.746Z,98006.38
2023-01-17T11:31:51.607Z,98009.75
2023-01-17T11:34:25.162Z,98034.81
2023-01-17T11:37:19.484Z,98052.25
2023-01-17T11:39:50.303Z,98021.94
2023-01-17T11:42:38.680Z,98053.81
2023-01-17T11:45:28.259Z,98028.25
2023-01-17T11:48:08.238Z,98007.41
2023-01-17T11:50:38.884Z,98003.09
2023-01-17T11:53:32.321Z,97989.06
2023-01-17T11:56:06.198Z,98023.03
2023-01-17T11:58:38.341Z,98014.03
2023-01-17T12:01:25.670Z,98047.75
2023-01-17T12:03:56.502Z,98035.97
2023-01-17T12:06:57.224Z,98051.13
2023-01-17T12:09:46.758Z,98006.91
2023-01-17T12:12:51.424Z,97992.78
2023-01-17T12:15:44.033Z,98012.03
2023-01-17T12:18:30.704Z,98010.09
2023-01-17T12:21:10.698Z,98010.88
2023-01-17T12:23:58.710Z,97995.50
2023-01-17T12:26:45.197Z,97999.00
2023-01-17T12:29:31.610Z,98016.09
2023-01-17T12:32:09.776Z,97990.31
2023-01-17T12:34:43.911Z,97995.09
2023-01-17T12:37:34.610Z,97983.97
2023-01-17T12:40:25.459Z,97997.31
2023-01-17T12:43:02.639Z,97987.09
2023-01-17T12:45:39.971Z,98038.94
2023-01-17T12:48:16.763Z,98015.19
2023-01-17T12:51:09.448Z,98031.03
2023-01-17T12:54:02.136Z,97991.09
2023-01-17T12:56:42.858Z,97986.19
2023-01-17T12:59:20.182Z,98076.50
2023-01-17T13:01:57.970Z,98021.09
2023-01-17T13:04:32.239Z,98047.09
2023-01-17T13:07:00.272Z,98022.19
2023-01-17T13:09:41.907Z,97998.09
2023-01-17T13:12:15.400Z,98046.75
2023-01-17T13:14:45.704Z,97978.59
2023-01-17T13:17:35.332Z,98022.97
2023-01-17T13:20:42.432Z,98039.19
2023-01-17T13:23:22.460Z,98069.97
2023-01-17T13:25:51.199Z,98020.53
2023-01-17T13:28:24.998Z,98066.91
2023-01-17T13:31:14.464Z,98047.56
2023-01-17T13:33:57.601Z,98060.69
2023-01-17T13:36:42.599Z,98055.25
2023-01-17T13:39:43.888Z,98060.91
2023-01-17T13:42:39.328Z,98027.69
2023-01-17T13:45:20.054Z,98014.78
2023-01-17T13:47:48.060Z,98038.53
2023-01-17T13:50:46.302Z,98039.19
2023-01-17T13:53:37.322Z,98045.09
2023-01-17T13:56:25.654Z,98007.53
2023-01-17T13:58:58.391Z,98003.13
2023-01-17T14:01:46.207Z,98006.19
2023-01-17T14:04:14.140Z,98028.13
2023-01-17T14:06:44.920Z,98031.97
2023-01-17T14:09:30.552Z,98014.13
2023-01-17T14:12:08.290Z,98063.19
2023-01-17T14:14:42.960Z,98056.97
2023-01-17T14:17:26.708Z,98049.63
2023-01-17T14:20:19.927Z,98042.28
2023-01-17T14:23:01.957Z,98045.66
2023-01-17T14:25:38.406Z,98071.09
2023-01-17T14:28:21.723Z,98095.53
2023-01-17T14:30:58.398Z,98059.91
2023-01-17T14:33:30.485Z,98084.00
2023-01-17T14:36:03.463Z,98091.00
2023-01-17T14:38:34.019Z,98058.09
2023-01-17T14:41:10.003Z,98107.97
2023-01-17T14:43:45.404Z,98072.34
2023-01-17T14:46:26.009Z,98102.97
2023-01-17T14:49:07.609Z,98099.47
2023-01-17T14:51:35.732Z,98087.38
2023-01-17T14:54:15.856Z,98070.66
2023-01-17T14:56:43.742Z,98072.69
2023-01-17T14:59:21.189Z,98082.19
2023-01-17T15:02:07.614Z,98077.56
2023-01-17T15:04:39.647Z,98068.16
2023-01-17T15:07:13.131Z,98085.13
2023-01-17T15:09:44.248Z,98041.25
2023-01-17T15:12:16.407Z,98057.78
2023-01-17T15:14:46.652Z,98090.78
2023-01-17T15:17:24.945Z,98111.69
2023-01-17T15:20:16.253Z,98151.59
2023-01-17T15:22:44.618Z,98063.16
2023-01-17T15:25:14.284Z,98100.81
2023-01-17T15:27:47.491Z,98099.13
2023-01-17T15:30:18.406Z,98158.38
2023-01-17T15:32:51.415Z,98128.06
2023-01-17T15:35:20.495Z,98143.78
2023-01-17T15:37:54.036Z,98092.31
2023-01-17T15:40:24.382Z,98156.44
2023-01-17T15:42:59.481Z,98162.22
2023-01-17T15:45:32.527Z,98136.19
2023-01-17T15:48:40.651Z,98181.78
2023-01-17T15:51:11.542Z,98176.13
2023-01-17T15:53:42.746Z,98180.66
2023-01-17T15:56:34.369Z,98192.50
2023-01-17T15:59:48.427Z,98118.81
2023-01-17T16:02:30.107Z,98165.38
2023-01-17T16:04:59.905Z,98193.75
2023-01-17T16:07:36.254Z,98210.03
2023-01-17T16:10:18.984Z,98165.81
2023-01-17T16:12:48.910Z,98162.75
2023-01-17T16:15:18.824Z,98162.66
2023-01-17T16:17:52.759Z,98183.38
2023-01-17T16:20:26.116Z,98208.13
2023-01-17T16:22:54.126Z,98174.84
2023-01-17T16:25:24.098Z,98212.63
2023-01-17T16:27:53.620Z,98204.44
2023-01-17T16:30:21.770Z,98225.75
2023-01-17T16:32:50.442Z,98211.69
2023-01-17T16:35:25.062Z,98235.41
2023-01-17T16:38:00.125Z,98236.34
2023-01-17T16:40:30.444Z,98178.72
2023-01-17T16:42:59.896Z,98239.72
2023-01-17T16:45:27.801Z,98226.16
2023-01-17T16:47:55.832Z,98182.31
2023-01-17T16:50:25.322Z,98254.41
2023-01-17T16:52:54.891Z,98245.03
2023-01-17T16:55:25.480Z,98290.22
2023-01-17T16:57:58.287Z,98250.78
2023-01-17T17:00:27.123Z,98271.69
2023-01-17T17:02:55.057Z,98222.84
2023-01-17T17:05:22.908Z,98246.13
2023-01-17T17:07:53.006Z,98220.59
2023-01-17T17:10:25.076Z,98198.56
2023-01-17T17:12:52.907Z,98240.63
2023-01-17T17:15:21.738Z,98238.72
2023-01-17T17:17:50.118Z,98304.69
2023-01-17T17:20:25.164Z,98229.53
2023-01-17T17:22:55.911Z,98240.81
2023-01-17T17:25:23.660Z,98325.94
2023-01-17T17:27:54.150Z,98259.97
2023-01-17T17:30:22.003Z,98260.69
2023-01-17T17:32:49.881Z,98338.56
2023-01-17T17:35:17.842Z,98312.41
2023-01-17T17:37:45.790Z,98365.34
2023-01-17T17:40:13.554Z,98377.72
2023-01-17T17:42:43.104Z,98368.25
2023-01-17T17:45:11.165Z,98398.09
2023-01-17T17:47:39.167Z,98285.03
2023-01-17T17:50:07.728Z,98343.41
2023-01-17T17:52:35.588Z,98334.19
2023-01-17T17:55:03.413Z,98301.44
2023-01-17T17:57:31.129Z,98312.44
2023-01-17T17:59:59.994Z,98269.31
2023-01-17T18:02:27.919Z,98298.22
2023-01-17T18:04:55.816Z,98322.88
2023-01-17T18:07:23.757Z,98317.91
2023-01-17T18:09:51.634Z,98350.53
2023-01-17T18:12:19.419Z,98313.88
2023-01-17T18:14:48.013Z,98324.22
2023-01-17T18:17:20.384Z,98332.59
2023-01-17T18:19:48.215Z,98341.41
2023-01-17T18:22:16.149Z,98353.00
2023-01-17T18:24:44.047Z,98351.94
2023-01-17T18:27:11.906Z,98324.53
2023-01-17T18:29:40.412Z,98362.34
2023-01-17T18:32:08.290Z,98357.69
2023-01-17T18:34:39.583Z,98385.53
2023-01-17T18:37:07.836Z,98358.97
2023-01-17T18:39:35.815Z,98398.97
2023-01-17T18:42:03.624Z,98385.59
2023-01-17T18:44:31.743Z,98368.25
2023-01-17T18:47:04.477Z,98321.03
2023-01-17T18:49:35.037Z,98338.09
2023-01-17T18:52:03.207Z,98336.63
2023-01-17T18:54:32.038Z,98329.56
2023-01-17T18:56:59.779Z,98345.44
2023-01-17T18:59:27.483Z,98347.50
2023-01-17T19:01:55.349Z,98320.38
2023-01-17T19:04:23.267Z,98372.25
2023-01-17T19:06:51.346Z,98370.44
2023-01-17T19:09:19.591Z,98363.66
2023-01-17T19:11:47.674Z,98378.50
2023-01-17T19:14:15.935Z,98394.78
2023-01-17T19:16:44.232Z,98403.22
2023-01-17T19:19:14.735Z,98411.81
2023-01-17T19:21:42.954Z,98408.97
2023-01-17T19:24:13.372Z,98388.66
2023-01-17T19:26:42.291Z,98403.88
2023-01-17T19:29:10.608Z,98412.84
2023-01-17T19:31:42.733Z,98417.56
2023-01-17T19:34:14.025Z,98419.34
2023-01-17T19:36:42.388Z,98398.00
2023-01-17T19:39:13.550Z,98412.53
2023-01-17T19:41:43.880Z,98404.94
2023-01-17T19:44:14.144Z,98431.34
2023-01-17T19:46:43.724Z,98447.94
2023-01-17T19:49:12.309Z,98438.41
2023-01-17T19:51:41.546Z,98370.78
2023-01-17T19:54:09.554Z,98389.59
2023-01-17T19:56:37.559Z,98336.03
2023-01-17T19:59:06.196Z,98433.19
2023-01-17T20:01:35.114Z,98434.63
2023-01-17T20:04:04.342Z,98408.22
2023-01-17T20:06:35.485Z,98437.47
2023-01-17T20:09:05.208Z,98430.34
2023-01-17T20:11:33.360Z,98450.56
2023-01-17T20:14:01.949Z,98476.19
2023-01-17T20:16:32.094Z,98476.34
2023-01-17T20:19:02.588Z,98469.78
2023-01-17T20:21:31.963Z,98478.22
2023-01-17T20:24:03.276Z,98465.72
2023-01-17T20:26:36.820Z,98474.72
2023-01-17T20:29:10.362Z,98411.44
2023-01-17T20:31:40.763Z,98486.91
2023-01-17T20:34:11.695Z,98499.34
2023-01-17T20:36:41.901Z,98488.50
2023-01-17T20:39:11.229Z,98463.69
2023-01-17T20:41:43.334Z,98481.31
2023-01-17T20:44:14.100Z,98460.97
2023-01-17T20:46:42.661Z,98477.53
2023-01-17T20:49:15.323Z,98457.94
2023-01-17T20:51:44.780Z,98507.84
2023-01-17T20:54:15.410Z,98463.22
2023-01-17T20:56:43.725Z,98494.13
2023-01-17T20:59:17.376Z,98484.06
2023-01-17T21:01:45.971Z,98471.66
2023-01-17T21:04:15.058Z,98482.94
2023-01-17T21:06:44.055Z,98446.34
2023-01-17T21:09:14.473Z,98468.63
2023-01-17T21:11:42.543Z,98427.44
2023-01-17T21:14:11.833Z,98416.16
2023-01-17T21:16:40.550Z,98438.44
2023-01-17T21:19:12.205Z,98382.28
2023-01-17T21:21:40.109Z,98438.56
2023-01-17T21:24:08.107Z,98421.06
2023-01-17T21:26:39.167Z,98418.53
2023-01-17T21:29:07.285Z,98409.47
2023-01-17T21:31:36.949Z,98332.19
2023-01-17T21:34:10.700Z,98395.78
2023-01-17T21:36:41.100Z,98378.94
2023-01-17T21:39:17.587Z,98431.13
2023-01-17T21:41:51.115Z,98423.03
2023-01-17T21:44:21.893Z,98434.16
2023-01-17T21:46:54.376Z,98449.59
2023-01-17T21:49:24.078Z,98427.97
2023-01-17T21:51:55.495Z,98454.09
2023-01-17T21:54:48.499Z,98444.84
2023-01-17T21:57:38.677Z,98443.25
2023-01-17T22:00:09.492Z,98462.03
2023-01-17T22:02:41.278Z,98453.91
2023-01-17T22:05:09.943Z,98390.16
2023-01-17T22:07:40.850Z,98428.69
2023-01-17T22:10:09.287Z,98375.84
2023-01-17T22:12:37.293Z,98438.97
2023-01-17T22:15:06.009Z,98445.81
2023-01-17T22:17:34.726Z,98406.06
2023-01-17T22:20:02.578Z,98442.34
2023-01-17T22:22:32.581Z,98420.06
2023-01-17T22:25:01.477Z,98435.03
2023-01-17T22:27:29.708Z,98427.38
2023-01-17T22:29:57.753Z,98400.66
2023-01-17T22:32:27.220Z,98406.72
2023-01-17T22:34:56.688Z,98432.66
2023-01-17T22:37:24.610Z,98428.66
2023-01-17T22:39:52.353Z,98440.59
2023-01-17T22:42:20.325Z,98406.41
2023-01-17T22:44:49.142Z,98418.78
2023-01-17T22:47:16.987Z,98405.09
2023-01-17T22:49:44.773Z,98422.63
2023-01-17T22:52:12.928Z,98438.22
2023-01-17T22:54:40.785Z,98440.13
2023-01-17T22:57:08.731Z,98406.38
2023-01-17T22:59:36.541Z,98430.91
2023-01-17T23:02:04.296Z,98415.13
2023-01-17T23:04:32.094Z,98436.50
2023-01-17T23:06:59.730Z,98429.97
2023-01-17T23:09:28.055Z,98442.38
2023-01-17T23:11:56.497Z,98389.84
2023-01-17T23:14:56.791Z,98438.09
2023-01-17T23:17:44.947Z,98427.06
2023-01-17T23:20:12.818Z,98394.94
2023-01-17T23:22:40.574Z,98439.19
2023-01-17T23:25:11.736Z,98400.81
2023-01-17T23:28:04.037Z,98448.72
2023-01-17T23:30:38.265Z,98448.59
2023-01-17T23:33:12.081Z,98465.16
2023-01-17T23:35:42.552Z,98412.75
2023-01-17T23:38:26.216Z,98455.44
2023-01-17T23:41:17.901Z,98458.28
2023-01-17T23:43:55.233Z,98476.28
2023-01-17T23:46:24.156Z,98428.19
2023-01-17T23:48:52.185Z,98482.31
2023-01-17T23:51:20.160Z,98443.31
2023-01-17T23:53:48.315Z,98478.16
2023-01-17T23:56:24.992Z,98482.97
2023-01-17T23:58:53.027Z,98491.56
